createdAt,value
2022-11-29T18:29:43.186Z,9.30
2022-11-29T18:32:09.799Z,9.30
2022-11-29T18:34:38.127Z,9.40
2022-11-29T18:37:04.823Z,9.40
2022-11-29T18:39:31.723Z,9.40
2022-11-29T18:41:58.557Z,9.40
2022-11-29T18:44:29.406Z,9.30
2022-11-29T18:46:57.500Z,9.30
2022-11-29T18:49:24.198Z,9.40
2022-11-29T18:51:51.363Z,9.40
2022-11-29T18:54:19.957Z,9.40
2022-11-29T18:56:46.684Z,9.40
2022-11-29T18:59:16.787Z,9.50
2022-11-29T19:01:45.265Z,9.40
2022-11-29T19:04:18.555Z,9.40
2022-11-29T19:06:47.398Z,9.40
2022-11-29T19:09:21.184Z,9.40
2022-11-29T19:11:51.607Z,9.30
2022-11-29T19:14:19.958Z,9.30
2022-11-29T19:16:48.561Z,9.30
2022-11-29T19:19:15.608Z,9.20
2022-11-29T19:21:42.500Z,9.10
2022-11-29T19:24:18.575Z,9.10
2022-11-29T19:26:47.178Z,9.10
2022-11-29T19:29:14.673Z,9.10
2022-11-29T19:31:42.513Z,9.10
2022-11-29T19:34:09.375Z,9.20
2022-11-29T19:36:44.396Z,9.10
2022-11-29T19:39:13.747Z,9.00
2022-11-29T19:41:45.513Z,9.10
2022-11-29T19:44:17.482Z,9.10
2022-11-29T19:46:47.057Z,9.00
2022-11-29T19:49:14.122Z,9.00
2022-11-29T19:51:40.937Z,9.00
2022-11-29T19:54:09.584Z,9.00
2022-11-29T19:56:36.673Z,9.00
2022-11-29T19:59:03.635Z,9.10
2022-11-29T20:01:39.655Z,9.10
2022-11-29T20:04:08.385Z,9.10
2022-11-29T20:06:35.436Z,9.10
2022-11-29T20:09:02.374Z,9.10
2022-11-29T20:11:29.120Z,9.20
2022-11-29T20:14:00.723Z,9.20
2022-11-29T20:16:29.226Z,9.20
2022-11-29T20:18:57.061Z,9.10
2022-11-29T20:21:27.520Z,9.10
2022-11-29T20:23:59.421Z,9.10
2022-11-29T20:26:27.884Z,9.10
2022-11-29T20:28:54.789Z,9.10
2022-11-29T20:31:23.019Z,9.10
2022-11-29T20:33:51.445Z,9.10
2022-11-29T20:36:36.111Z,9.00
2022-11-29T20:39:05.520Z,9.00
2022-11-29T20:41:40.618Z,8.90
2022-11-29T20:44:13.397Z,8.90
2022-11-29T20:46:41.450Z,8.90
2022-11-29T20:49:10.143Z,8.80
2022-11-29T20:51:55.523Z,8.80
2022-11-29T20:54:22.181Z,8.70
2022-11-29T20:56:48.832Z,8.70
2022-11-29T20:59:15.742Z,8.70
2022-11-29T21:01:42.813Z,8.70
2022-11-29T21:04:09.550Z,8.70
2022-11-29T21:06:39.553Z,8.70
2022-11-29T21:09:06.900Z,8.70
2022-11-29T21:11:35.420Z,8.70
2022-11-29T21:14:04.435Z,8.60
2022-11-29T21:16:32.031Z,8.60
2022-11-29T21:19:01.853Z,8.60
2022-11-29T21:21:31.429Z,8.70
2022-11-29T21:24:22.610Z,8.70
2022-11-29T21:26:52.648Z,8.70
2022-11-29T21:29:21.864Z,8.70
2022-11-29T21:31:51.290Z,8.70
2022-11-29T21:34:19.255Z,8.70
2022-11-29T21:36:52.413Z,8.70
2022-11-29T21:39:20.700Z,8.70
2022-11-29T21:41:47.354Z,8.60
2022-11-29T21:44:18.401Z,8.60
2022-11-29T21:46:45.394Z,8.60
2022-11-29T21:49:12.103Z,8.60
2022-11-29T21:51:38.978Z,8.70
2022-11-29T21:54:05.649Z,8.70
2022-11-29T21:56:32.349Z,8.70
2022-11-29T21:58:59.018Z,8.80
2022-11-29T22:01:27.389Z,8.80
2022-11-29T22:03:55.201Z,8.80
2022-11-29T22:06:24.154Z,8.90
2022-11-29T22:08:50.929Z,9.00
2022-11-29T22:11:30.623Z,8.90
2022-11-29T22:14:15.622Z,8.80
2022-11-29T22:16:59.362Z,8.80
2022-11-29T22:19:28.365Z,8.80
2022-11-29T22:21:57.344Z,8.80
2022-11-29T22:24:26.272Z,8.80
2022-11-29T22:26:53.790Z,8.80
2022-11-29T22:29:20.565Z,8.80
2022-11-29T22:31:49.289Z,8.90
2022-11-29T22:34:16.498Z,8.90
2022-11-29T22:36:43.392Z,8.90
2022-11-29T22:39:10.229Z,8.90
2022-11-29T22:41:38.139Z,8.90
2022-11-29T22:44:05.753Z,8.90
2022-11-29T22:46:32.551Z,8.90
2022-11-29T22:49:00.585Z,8.90
2022-11-29T22:51:35.348Z,8.90
2022-11-29T22:54:15.166Z,8.90
2022-11-29T22:56:43.061Z,8.90
2022-11-29T22:59:09.968Z,8.90
2022-11-29T23:01:39.101Z,8.90
2022-11-29T23:04:08.048Z,8.90
2022-11-29T23:06:37.378Z,9.00
2022-11-29T23:09:15.915Z,8.90
2022-11-29T23:11:44.376Z,8.80
2022-11-29T23:14:11.524Z,8.80
2022-11-29T23:16:38.610Z,8.80
2022-11-29T23:19:05.406Z,8.80
2022-11-29T23:21:37.858Z,8.90
2022-11-29T23:24:05.051Z,8.90
2022-11-29T23:26:36.422Z,8.90
2022-11-29T23:29:05.510Z,8.90
2022-11-29T23:31:32.812Z,9.00
2022-11-29T23:33:59.495Z,9.00
2022-11-29T23:36:26.110Z,9.00
2022-11-29T23:38:52.785Z,8.80
2022-11-29T23:41:19.686Z,8.80
2022-11-29T23:43:46.510Z,8.80
